sensor_id;sensor_type;location;lat;lon;timestamp;pressure;altitude;pressure_sealevel;temperature;humidity
9325;BME280;4701;51.566;6.776;2023-01-29T07:02:49;102612.09;;;-1.96;100.00
9325;BME280;4701;51.566;6.776;2023-01-29T07:04:51;102616.63;;;-1.86;100.00
9325;BME280;4701;51.566;6.776;2023-01-29T07:06:53;102615.63;;;-1.76;100.00
9325;BME280;4701;51.566;6.776;2023-01-29T07:08:55;102618.19;;;-1.74;100.00
9325;BME280;4701;51.566;6.776;2023-01-29T07:10:58;102628.44;;;-1.70;100.00
9325;BME280;4701;51.566;6.776;2023-01-29T07:13:01;102628.03;;;-1.65;100.00
9325;BME280;4701;51.566;6.776;2023-01-29T07:15:03;102619.88;;;-1.64;100.00
9325;BME280;4701;51.566;6.776;2023-01-29T07:17:05;102618.59;;;-1.60;100.00
9325;BME280;4701;51.566;6.776;2023-01-29T07:19:09;102622.94;;;-1.49;100.00
9325;BME280;4701;51.566;6.776;2023-01-29T07:21:12;102613.09;;;-1.39;100.00
9325;BME280;4701;51.566;6.776;2023-01-29T07:23:15;102606.47;;;-1.44;100.00
9325;BME280;4701;51.566;6.776;2023-01-29T07:25:17;102610.28;;;-1.37;100.00
9325;BME280;4701;51.566;6.776;2023-01-29T07:27:19;102616.63;;;-1.38;100.00
9325;BME280;4701;51.566;6.776;2023-01-29T07:29:21;102620.28;;;-1.39;100.00
9325;BME280;4701;51.566;6.776;2023-01-29T07:31:23;102621.38;;;-1.32;100.00
9325;BME280;4701;51.566;6.776;2023-01-29T07:33:25;102629.41;;;-1.23;100.00
9325;BME280;4701;51.566;6.776;2023-01-29T07:35:28;102620.81;;;-1.26;100.00
9325;BME280;4701;51.566;6.776;2023-01-29T07:37:30;102613.19;;;-1.11;100.00
9325;BME280;4701;51.566;6.776;2023-01-29T07:39:32;102601.19;;;-1.07;100.00
9325;BME280;4701;51.566;6.776;2023-01-29T07:41:33;102610.19;;;-1.08;100.00
9325;BME280;4701;51.566;6.776;2023-01-29T07:43:42;102609.63;;;-1.02;100.00
9325;BME280;4701;51.566;6.776;2023-01-29T07:45:43;102610.31;;;-1.00;100.00
9325;BME280;4701;51.566;6.776;2023-01-29T07:47:51;102600.31;;;-0.98;100.00
9325;BME280;4701;51.566;6.776;2023-01-29T07:49:53;102599.44;;;-0.89;99.99
9325;BME280;4701;51.566;6.776;2023-01-29T07:51:56;102612.56;;;-0.96;99.39
9325;BME280;4701;51.566;6.776;2023-01-29T07:53:58;102609.06;;;-0.96;98.92
9325;BME280;4701;51.566;6.776;2023-01-29T07:56:00;102597.63;;;-0.98;98.91
9325;BME280;4701;51.566;6.776;2023-01-29T07:58:02;102597.91;;;-1.01;98.88
9325;BME280;4701;51.566;6.776;2023-01-29T08:00:05;102603.00;;;-1.08;98.69
9325;BME280;4701;51.566;6.776;2023-01-29T08:02:12;102604.31;;;-1.12;99.11
9325;BME280;4701;51.566;6.776;2023-01-29T08:04:14;102608.53;;;-1.19;99.50
9325;BME280;4701;51.566;6.776;2023-01-29T08:06:16;102606.41;;;-1.16;99.62
9325;BME280;4701;51.566;6.776;2023-01-29T08:08:20;102616.00;;;-1.13;99.32
9325;BME280;4701;51.566;6.776;2023-01-29T08:10:21;102621.09;;;-1.20;99.44
9325;BME280;4701;51.566;6.776;2023-01-29T08:12:23;102615.88;;;-1.11;99.38
9325;BME280;4701;51.566;6.776;2023-01-29T08:14:25;102609.91;;;-1.05;99.50
9325;BME280;4701;51.566;6.776;2023-01-29T08:16:27;102604.13;;;-1.10;99.30
9325;BME280;4701;51.566;6.776;2023-01-29T08:18:29;102603.28;;;-1.01;99.49
9325;BME280;4701;51.566;6.776;2023-01-29T08:20:31;102586.66;;;-0.95;98.90
9325;BME280;4701;51.566;6.776;2023-01-29T08:22:33;102585.69;;;-1.04;98.22
9325;BME280;4701;51.566;6.776;2023-01-29T08:24:37;102579.06;;;-1.09;98.80
9325;BME280;4701;51.566;6.776;2023-01-29T08:26:39;102571.34;;;-1.12;98.99
9325;BME280;4701;51.566;6.776;2023-01-29T08:28:41;102573.72;;;-1.09;99.03
9325;BME280;4701;51.566;6.776;2023-01-29T08:30:42;102583.47;;;-1.18;99.43
9325;BME280;4701;51.566;6.776;2023-01-29T08:32:44;102577.44;;;-1.20;99.69
9325;BME280;4701;51.566;6.776;2023-01-29T08:34:47;102586.81;;;-1.06;99.52
9325;BME280;4701;51.566;6.776;2023-01-29T08:36:49;102583.13;;;-0.96;99.59
9325;BME280;4701;51.566;6.776;2023-01-29T08:38:50;102584.94;;;-0.87;99.13
9325;BME280;4701;51.566;6.776;2023-01-29T08:40:54;102580.25;;;-0.85;98.00
9325;BME280;4701;51.566;6.776;2023-01-29T08:42:56;102570.03;;;-0.99;98.75
9325;BME280;4701;51.566;6.776;2023-01-29T08:44:58;102570.97;;;-0.90;98.83
9325;BME280;4701;51.566;6.776;2023-01-29T08:47:00;102562.28;;;-1.02;98.54
9325;BME280;4701;51.566;6.776;2023-01-29T08:49:02;102567.78;;;-0.94;98.70
9325;BME280;4701;51.566;6.776;2023-01-29T08:51:05;102552.84;;;-0.96;98.50
9325;BME280;4701;51.566;6.776;2023-01-29T08:53:07;102554.94;;;-1.00;98.45
9325;BME280;4701;51.566;6.776;2023-01-29T08:55:10;102560.75;;;-1.04;99.20
9325;BME280;4701;51.566;6.776;2023-01-29T08:57:14;102570.03;;;-0.99;99.47
9325;BME280;4701;51.566;6.776;2023-01-29T08:59:16;102568.34;;;-1.00;99.47
9325;BME280;4701;51.566;6.776;2023-01-29T09:01:18;102570.84;;;-0.89;99.42
9325;BME280;4701;51.566;6.776;2023-01-29T09:03:20;102559.25;;;-0.80;99.01
9325;BME280;4701;51.566;6.776;2023-01-29T09:05:22;102540.19;;;-0.77;97.98
9325;BME280;4701;51.566;6.776;2023-01-29T09:07:24;102545.00;;;-0.80;97.51
9325;BME280;4701;51.566;6.776;2023-01-29T09:09:26;102540.88;;;-0.74;97.62
9325;BME280;4701;51.566;6.776;2023-01-29T09:11:28;102551.06;;;-0.78;97.51
9325;BME280;4701;51.566;6.776;2023-01-29T09:13:31;102547.41;;;-0.77;97.61
9325;BME280;4701;51.566;6.776;2023-01-29T09:15:33;102546.00;;;-0.81;97.81
9325;BME280;4701;51.566;6.776;2023-01-29T09:17:35;102543.47;;;-0.83;98.23
9325;BME280;4701;51.566;6.776;2023-01-29T09:19:37;102545.72;;;-0.78;98.17
9325;BME280;4701;51.566;6.776;2023-01-29T09:21:39;102540.75;;;-0.73;98.19
9325;BME280;4701;51.566;6.776;2023-01-29T09:23:41;102530.88;;;-0.72;97.63
9325;BME280;4701;51.566;6.776;2023-01-29T09:25:43;102533.41;;;-0.71;97.94
9325;BME280;4701;51.566;6.776;2023-01-29T09:27:45;102537.47;;;-0.67;98.01
9325;BME280;4701;51.566;6.776;2023-01-29T09:29:48;102540.31;;;-0.68;97.33
9325;BME280;4701;51.566;6.776;2023-01-29T09:31:50;102532.75;;;-0.83;97.03
9325;BME280;4701;51.566;6.776;2023-01-29T09:33:52;102531.03;;;-0.74;97.51
9325;BME280;4701;51.566;6.776;2023-01-29T09:35:53;102524.06;;;-0.67;97.77
9325;BME280;4701;51.566;6.776;2023-01-29T09:37:56;102526.94;;;-0.51;97.05
9325;BME280;4701;51.566;6.776;2023-01-29T09:39:58;102522.78;;;-0.63;96.26
9325;BME280;4701;51.566;6.776;2023-01-29T09:42:05;102525.19;;;-0.60;96.60
9325;BME280;4701;51.566;6.776;2023-01-29T09:44:17;102525.34;;;-0.61;96.20
9325;BME280;4701;51.566;6.776;2023-01-29T09:46:26;102525.19;;;-0.60;96.47
9325;BME280;4701;51.566;6.776;2023-01-29T09:48:33;102524.44;;;-0.52;96.29
9325;BME280;4701;51.566;6.776;2023-01-29T09:50:38;102525.03;;;-0.41;96.71
9325;BME280;4701;51.566;6.776;2023-01-29T09:52:46;102531.84;;;-0.46;95.26
9325;BME280;4701;51.566;6.776;2023-01-29T09:54:56;102536.75;;;-0.42;95.86
9325;BME280;4701;51.566;6.776;2023-01-29T09:57:00;102530.09;;;-0.38;95.44
9325;BME280;4701;51.566;6.776;2023-01-29T09:59:02;102540.28;;;-0.41;95.13
9325;BME280;4701;51.566;6.776;2023-01-29T10:01:11;102539.97;;;-0.38;95.10
9325;BME280;4701;51.566;6.776;2023-01-29T10:03:30;102527.88;;;-0.24;95.27
9325;BME280;4701;51.566;6.776;2023-01-29T10:05:50;102526.03;;;-0.24;93.95
9325;BME280;4701;51.566;6.776;2023-01-29T10:10:40;102523.63;;;-0.17;94.59
9325;BME280;4701;51.566;6.776;2023-01-29T10:13:00;102537.53;;;-0.31;93.61
9325;BME280;4701;51.566;6.776;2023-01-29T10:15:17;102530.75;;;-0.26;94.77
9325;BME280;4701;51.566;6.776;2023-01-29T10:17:35;102532.56;;;-0.26;94.12
9325;BME280;4701;51.566;6.776;2023-01-29T10:24:53;102532.09;;;-0.22;93.64
9325;BME280;4701;51.566;6.776;2023-01-29T10:26:58;102529.66;;;-0.15;93.75
9325;BME280;4701;51.566;6.776;2023-01-29T10:29:04;102531.81;;;-0.19;93.02
9325;BME280;4701;51.566;6.776;2023-01-29T10:31:10;102522.00;;;-0.10;93.90
9325;BME280;4701;51.566;6.776;2023-01-29T10:33:17;102519.69;;;-0.05;94.46
9325;BME280;4701;51.566;6.776;2023-01-29T10:35:28;102515.94;;;0.06;94.35
9325;BME280;4701;51.566;6.776;2023-01-29T10:37:35;102509.13;;;-0.07;93.35
9325;BME280;4701;51.566;6.776;2023-01-29T10:39:40;102509.94;;;0.12;94.06
9325;BME280;4701;51.566;6.776;2023-01-29T10:41:51;102508.88;;;0.05;93.38
9325;BME280;4701;51.566;6.776;2023-01-29T10:44:06;102511.16;;;0.17;94.40
9325;BME280;4701;51.566;6.776;2023-01-29T10:46:21;102503.88;;;0.27;94.37
9325;BME280;4701;51.566;6.776;2023-01-29T10:48:43;102496.47;;;0.21;93.27
9325;BME280;4701;51.566;6.776;2023-01-29T10:50:54;102488.97;;;0.07;92.34
9325;BME280;4701;51.566;6.776;2023-01-29T10:53:15;102482.16;;;0.13;93.57
9325;BME280;4701;51.566;6.776;2023-01-29T10:55:30;102493.59;;;-0.03;92.91
9325;BME280;4701;51.566;6.776;2023-01-29T10:57:45;102485.53;;;-0.03;93.20
9325;BME280;4701;51.566;6.776;2023-01-29T11:00:02;102487.09;;;-0.01;93.68
9325;BME280;4701;51.566;6.776;2023-01-29T11:02:13;102492.50;;;0.08;93.72
9325;BME280;4701;51.566;6.776;2023-01-29T11:04:17;102487.59;;;0.03;93.41
9325;BME280;4701;51.566;6.776;2023-01-29T11:06:22;102484.97;;;0.11;93.11
9325;BME280;4701;51.566;6.776;2023-01-29T11:08:28;102470.44;;;0.14;92.57
9325;BME280;4701;51.566;6.776;2023-01-29T11:10:36;102471.22;;;0.06;92.34
9325;BME280;4701;51.566;6.776;2023-01-29T11:12:42;102450.19;;;0.19;92.24
9325;BME280;4701;51.566;6.776;2023-01-29T11:14:50;102450.91;;;0.04;91.90
9325;BME280;4701;51.566;6.776;2023-01-29T11:16:54;102446.75;;;0.09;92.39
9325;BME280;4701;51.566;6.776;2023-01-29T11:18:58;102449.97;;;0.13;91.80
9325;BME280;4701;51.566;6.776;2023-01-29T11:21:02;102451.25;;;0.09;91.64
9325;BME280;4701;51.566;6.776;2023-01-29T11:23:23;102443.34;;;-0.01;92.34
9325;BME280;4701;51.566;6.776;2023-01-29T11:25:26;102442.03;;;0.03;92.13
9325;BME280;4701;51.566;6.776;2023-01-29T11:27:32;102448.81;;;0.15;92.33
9325;BME280;4701;51.566;6.776;2023-01-29T11:29:39;102434.72;;;0.13;92.26
9325;BME280;4701;51.566;6.776;2023-01-29T11:31:42;102437.66;;;0.02;92.10
9325;BME280;4701;51.566;6.776;2023-01-29T11:33:44;102448.81;;;0.15;91.82
9325;BME280;4701;51.566;6.776;2023-01-29T11:35:47;102437.25;;;0.15;92.09
9325;BME280;4701;51.566;6.776;2023-01-29T11:37:51;102443.22;;;0.09;92.24
9325;BME280;4701;51.566;6.776;2023-01-29T11:39:55;102434.81;;;0.29;92.92
9325;BME280;4701;51.566;6.776;2023-01-29T11:41:58;102432.78;;;0.23;92.09
9325;BME280;4701;51.566;6.776;2023-01-29T11:44:00;102434.38;;;0.34;92.42
9325;BME280;4701;51.566;6.776;2023-01-29T11:46:10;102424.69;;;0.41;91.70
9325;BME280;4701;51.566;6.776;2023-01-29T11:48:17;102418.19;;;0.52;91.63
9325;BME280;4701;51.566;6.776;2023-01-29T11:50:23;102422.09;;;0.57;91.82
9325;BME280;4701;51.566;6.776;2023-01-29T11:52:32;102411.81;;;0.53;91.34
9325;BME280;4701;51.566;6.776;2023-01-29T11:54:42;102401.69;;;0.38;91.47
9325;BME280;4701;51.566;6.776;2023-01-29T11:56:48;102409.91;;;0.37;91.54
9325;BME280;4701;51.566;6.776;2023-01-29T11:58:53;102396.81;;;0.34;91.60
9325;BME280;4701;51.566;6.776;2023-01-29T12:00:57;102384.63;;;0.48;92.32
9325;BME280;4701;51.566;6.776;2023-01-29T12:03:05;102382.59;;;0.42;92.10
9325;BME280;4701;51.566;6.776;2023-01-29T12:05:14;102384.94;;;0.45;92.48
9325;BME280;4701;51.566;6.776;2023-01-29T12:07:17;102374.75;;;0.48;92.27
9325;BME280;4701;51.566;6.776;2023-01-29T12:09:21;102372.78;;;0.58;92.27
9325;BME280;4701;51.566;6.776;2023-01-29T12:11:28;102363.63;;;0.43;91.54
9325;BME280;4701;51.566;6.776;2023-01-29T12:13:34;102354.81;;;0.51;91.83
9325;BME280;4701;51.566;6.776;2023-01-29T12:15:37;102336.03;;;0.51;91.59
9325;BME280;4701;51.566;6.776;2023-01-29T12:17:40;102338.34;;;0.46;91.55
9325;BME280;4701;51.566;6.776;2023-01-29T12:19:45;102329.16;;;0.56;92.29
9325;BME280;4701;51.566;6.776;2023-01-29T12:21:52;102314.97;;;0.72;92.80
9325;BME280;4701;51.566;6.776;2023-01-29T12:24:01;102312.84;;;1.00;91.64
9325;BME280;4701;51.566;6.776;2023-01-29T12:26:07;102317.34;;;0.91;90.12
9325;BME280;4701;51.566;6.776;2023-01-29T12:28:21;102308.94;;;0.94;90.31
9325;BME280;4701;51.566;6.776;2023-01-29T12:30:29;102312.00;;;0.91;90.14
9325;BME280;4701;51.566;6.776;2023-01-29T12:32:38;102308.75;;;0.80;90.00
9325;BME280;4701;51.566;6.776;2023-01-29T12:34:44;102298.56;;;0.83;90.97
9325;BME280;4701;51.566;6.776;2023-01-29T12:36:51;102298.41;;;0.93;90.33
9325;BME280;4701;51.566;6.776;2023-01-29T12:38:55;102296.19;;;0.88;89.76
9325;BME280;4701;51.566;6.776;2023-01-29T12:41:04;102289.81;;;0.81;90.16
9325;BME280;4701;51.566;6.776;2023-01-29T12:43:21;102285.28;;;0.82;90.41
9325;BME280;4701;51.566;6.776;2023-01-29T12:45:27;102278.09;;;0.82;90.13
9325;BME280;4701;51.566;6.776;2023-01-29T12:47:32;102279.09;;;0.81;90.00
9325;BME280;4701;51.566;6.776;2023-01-29T12:49:38;102273.72;;;0.81;90.33
9325;BME280;4701;51.566;6.776;2023-01-29T12:51:48;102274.41;;;0.83;90.04
9325;BME280;4701;51.566;6.776;2023-01-29T12:53:54;102269.88;;;0.92;90.23
9325;BME280;4701;51.566;6.776;2023-01-29T12:55:59;102265.34;;;0.92;89.99
9325;BME280;4701;51.566;6.776;2023-01-29T12:58:04;102267.88;;;1.02;89.77
9325;BME280;4701;51.566;6.776;2023-01-29T13:00:12;102262.81;;;0.99;89.24
9325;BME280;4701;51.566;6.776;2023-01-29T13:02:25;102258.94;;;0.85;89.43
9325;BME280;4701;51.566;6.776;2023-01-29T13:04:36;102259.59;;;0.79;90.03
9325;BME280;4701;51.566;6.776;2023-01-29T13:06:43;102268.66;;;0.78;89.94
9325;BME280;4701;51.566;6.776;2023-01-29T13:08:49;102263.66;;;0.75;90.09
9325;BME280;4701;51.566;6.776;2023-01-29T13:10:54;102263.13;;;0.80;90.68
9325;BME280;4701;51.566;6.776;2023-01-29T13:13:01;102253.94;;;0.90;90.20
9325;BME280;4701;51.566;6.776;2023-01-29T13:15:16;102254.41;;;0.86;90.02
9325;BME280;4701;51.566;6.776;2023-01-29T13:17:26;102243.66;;;0.86;89.74
9325;BME280;4701;51.566;6.776;2023-01-29T13:19:33;102244.19;;;0.89;89.75
9325;BME280;4701;51.566;6.776;2023-01-29T13:21:39;102244.34;;;0.88;89.95
9325;BME280;4701;51.566;6.776;2023-01-29T13:23:45;102242.34;;;0.90;89.87
9325;BME280;4701;51.566;6.776;2023-01-29T13:25:51;102251.06;;;0.84;89.76
9325;BME280;4701;51.566;6.776;2023-01-29T13:27:54;102241.81;;;0.78;90.21
9325;BME280;4701;51.566;6.776;2023-01-29T13:29:56;102242.50;;;0.80;90.07
9325;BME280;4701;51.566;6.776;2023-01-29T13:31:59;102230.94;;;0.80;89.92
9325;BME280;4701;51.566;6.776;2023-01-29T13:34:13;102237.31;;;0.87;89.71
9325;BME280;4701;51.566;6.776;2023-01-29T13:36:22;102243.50;;;0.79;89.75
9325;BME280;4701;51.566;6.776;2023-01-29T13:38:27;102237.81;;;0.82;89.99
9325;BME280;4701;51.566;6.776;2023-01-29T13:40:31;102233.47;;;0.97;89.82
9325;BME280;4701;51.566;6.776;2023-01-29T13:42:39;102222.88;;;1.04;89.42
9325;BME280;4701;51.566;6.776;2023-01-29T13:44:47;102229.09;;;0.96;88.75
9325;BME280;4701;51.566;6.776;2023-01-29T13:46:53;102233.47;;;0.89;89.19
9325;BME280;4701;51.566;6.776;2023-01-29T13:48:56;102231.63;;;0.98;89.48
9325;BME280;4701;51.566;6.776;2023-01-29T13:51:03;102230.78;;;0.97;89.46
9325;BME280;4701;51.566;6.776;2023-01-29T13:53:20;102227.59;;;1.02;89.30
9325;BME280;4701;51.566;6.776;2023-01-29T13:55:26;102223.03;;;0.94;89.02
9325;BME280;4701;51.566;6.776;2023-01-29T13:57:51;102226.75;;;0.93;89.33
9325;BME280;4701;51.566;6.776;2023-01-29T13:59:53;102229.75;;;0.90;89.90
9325;BME280;4701;51.566;6.776;2023-01-29T14:01:59;102215.34;;;0.91;89.67
9325;BME280;4701;51.566;6.776;2023-01-29T14:04:19;102216.19;;;1.00;89.30
9325;BME280;4701;51.566;6.776;2023-01-29T14:06:49;102217.03;;;1.00;89.23
9325;BME280;4701;51.566;6.776;2023-01-29T14:08:51;102216.66;;;0.95;89.03
9325;BME280;4701;51.566;6.776;2023-01-29T14:11:27;102211.66;;;1.00;88.78
9325;BME280;4701;51.566;6.776;2023-01-29T14:13:33;102203.09;;;0.97;88.97
9325;BME280;4701;51.566;6.776;2023-01-29T14:15:36;102208.28;;;0.98;89.43
9325;BME280;4701;51.566;6.776;2023-01-29T14:17:53;102197.72;;;0.97;89.06
9325;BME280;4701;51.566;6.776;2023-01-29T14:20:00;102210.28;;;0.96;89.50
9325;BME280;4701;51.566;6.776;2023-01-29T14:22:05;102203.09;;;0.97;89.67
9325;BME280;4701;51.566;6.776;2023-01-29T14:24:09;102195.03;;;0.97;89.59
9325;BME280;4701;51.566;6.776;2023-01-29T14:26:33;102209.97;;;0.91;89.24
9325;BME280;4701;51.566;6.776;2023-01-29T14:28:51;102198.72;;;1.04;89.03
9325;BME280;4701;51.566;6.776;2023-01-29T14:30:54;102190.84;;;1.19;88.62
9325;BME280;4701;51.566;6.776;2023-01-29T14:32:56;102190.34;;;1.07;88.73
9325;BME280;4701;51.566;6.776;2023-01-29T14:35:00;102182.25;;;1.15;88.34
9325;BME280;4701;51.566;6.776;2023-01-29T14:37:19;102180.56;;;1.22;88.53
9325;BME280;4701;51.566;6.776;2023-01-29T14:39:28;102190.84;;;1.19;88.00
9325;BME280;4701;51.566;6.776;2023-01-29T14:41:33;102186.47;;;1.18;87.95
9325;BME280;4701;51.566;6.776;2023-01-29T14:43:36;102175.38;;;1.21;87.90
9325;BME280;4701;51.566;6.776;2023-01-29T14:45:39;102185.78;;;1.16;87.84
9325;BME280;4701;51.566;6.776;2023-01-29T14:48:02;102178.91;;;1.13;87.82
9325;BME280;4701;51.566;6.776;2023-01-29T14:53:00;102181.94;;;1.18;87.28
9325;BME280;4701;51.566;6.776;2023-01-29T14:55:06;102175.88;;;1.16;87.05
9325;BME280;4701;51.566;6.776;2023-01-29T14:57:12;102180.91;;;1.11;87.04
9325;BME280;4701;51.566;6.776;2023-01-29T14:59:18;102179.56;;;1.23;87.08
9325;BME280;4701;51.566;6.776;2023-01-29T15:01:23;102181.06;;;1.26;86.66
9325;BME280;4701;51.566;6.776;2023-01-29T15:03:34;102179.22;;;1.26;86.93
9325;BME280;4701;51.566;6.776;2023-01-29T15:05:38;102170.34;;;1.26;86.84
9325;BME280;4701;51.566;6.776;2023-01-29T15:07:45;102171.81;;;1.28;86.63
9325;BME280;4701;51.566;6.776;2023-01-29T15:09:52;102173.66;;;1.28;86.38
9325;BME280;4701;51.566;6.776;2023-01-29T15:12:01;102162.78;;;1.21;86.38
9325;BME280;4701;51.566;6.776;2023-01-29T15:14:15;102165.28;;;1.23;86.30
9325;BME280;4701;51.566;6.776;2023-01-29T15:16:24;102160.06;;;1.29;86.71
9325;BME280;4701;51.566;6.776;2023-01-29T15:18:32;102162.25;;;1.34;86.05
9325;BME280;4701;51.566;6.776;2023-01-29T15:20:37;102170.31;;;1.34;86.19
9325;BME280;4701;51.566;6.776;2023-01-29T15:22:41;102148.28;;;1.38;86.27
9325;BME280;4701;51.566;6.776;2023-01-29T15:24:45;102147.00;;;1.26;86.21
9325;BME280;4701;51.566;6.776;2023-01-29T15:26:48;102163.78;;;1.20;86.05
9325;BME280;4701;51.566;6.776;2023-01-29T15:28:53;102164.28;;;1.32;86.61
9325;BME280;4701;51.566;6.776;2023-01-29T15:30:56;102164.81;;;1.27;86.10
9325;BME280;4701;51.566;6.776;2023-01-29T15:32:59;102156.06;;;1.25;86.51
9325;BME280;4701;51.566;6.776;2023-01-29T15:35:07;102164.94;;;1.34;86.48
9325;BME280;4701;51.566;6.776;2023-01-29T15:37:23;102159.44;;;1.27;86.11
9325;BME280;4701;51.566;6.776;2023-01-29T15:39:25;102156.75;;;1.27;86.46
9325;BME280;4701;51.566;6.776;2023-01-29T15:41:29;102146.16;;;1.26;86.11
9325;BME280;4701;51.566;6.776;2023-01-29T15:43:35;102136.91;;;1.28;86.60
9325;BME280;4701;51.566;6.776;2023-01-29T15:45:39;102136.88;;;1.36;85.99
9325;BME280;4701;51.566;6.776;2023-01-29T15:47:42;102123.13;;;1.31;86.64
9325;BME280;4701;51.566;6.776;2023-01-29T15:49:45;102125.63;;;1.41;86.33
9325;BME280;4701;51.566;6.776;2023-01-29T15:51:54;102124.28;;;1.37;86.27
9325;BME280;4701;51.566;6.776;2023-01-29T15:53:58;102116.09;;;1.30;86.49
9325;BME280;4701;51.566;6.776;2023-01-29T15:56:01;102115.41;;;1.28;86.62
9325;BME280;4701;51.566;6.776;2023-01-29T15:58:03;102132.03;;;1.32;86.69
9325;BME280;4701;51.566;6.776;2023-01-29T16:00:20;102112.91;;;1.27;86.69
9325;BME280;4701;51.566;6.776;2023-01-29T16:02:31;102107.84;;;1.32;86.60
9325;BME280;4701;51.566;6.776;2023-01-29T16:04:36;102112.72;;;1.28;86.00
9325;BME280;4701;51.566;6.776;2023-01-29T16:06:39;102118.94;;;1.29;86.80
9325;BME280;4701;51.566;6.776;2023-01-29T16:08:43;102113.22;;;1.32;86.72
9325;BME280;4701;51.566;6.776;2023-01-29T16:10:50;102111.25;;;1.26;86.79
9325;BME280;4701;51.566;6.776;2023-01-29T16:12:54;102114.09;;;1.24;86.60
9325;BME280;4701;51.566;6.776;2023-01-29T16:14:56;102107.03;;;1.23;86.93
9325;BME280;4701;51.566;6.776;2023-01-29T16:17:09;102090.19;;;1.37;87.21
9325;BME280;4701;51.566;6.776;2023-01-29T16:19:20;102090.72;;;1.33;86.89
9325;BME280;4701;51.566;6.776;2023-01-29T16:21:25;102091.22;;;1.36;86.56
9325;BME280;4701;51.566;6.776;2023-01-29T16:23:30;102090.72;;;1.33;86.58
9325;BME280;4701;51.566;6.776;2023-01-29T16:25:37;102088.53;;;1.36;86.77
9325;BME280;4701;51.566;6.776;2023-01-29T16:27:42;102088.72;;;1.35;87.23
9325;BME280;4701;51.566;6.776;2023-01-29T16:29:44;102091.03;;;1.38;87.05
9325;BME280;4701;51.566;6.776;2023-01-29T16:31:51;102092.72;;;1.39;87.36
9325;BME280;4701;51.566;6.776;2023-01-29T16:33:56;102085.00;;;1.44;87.31
9325;BME280;4701;51.566;6.776;2023-01-29T16:35:59;102086.50;;;1.38;87.47
9325;BME280;4701;51.566;6.776;2023-01-29T16:38:05;102086.34;;;1.40;87.21
9325;BME280;4701;51.566;6.776;2023-01-29T16:40:13;102081.50;;;1.35;87.54
9325;BME280;4701;51.566;6.776;2023-01-29T16:42:24;102083.47;;;1.41;87.66
9325;BME280;4701;51.566;6.776;2023-01-29T16:44:31;102081.13;;;1.38;87.46
9325;BME280;4701;51.566;6.776;2023-01-29T16:46:36;102079.28;;;1.39;87.45
9325;BME280;4701;51.566;6.776;2023-01-29T16:48:38;102079.81;;;1.34;87.58
9325;BME280;4701;51.566;6.776;2023-01-29T16:50:41;102071.75;;;1.34;87.78
9325;BME280;4701;51.566;6.776;2023-01-29T16:52:53;102067.03;;;1.36;87.75
9325;BME280;4701;51.566;6.776;2023-01-29T16:55:02;102067.19;;;1.43;87.60
9325;BME280;4701;51.566;6.776;2023-01-29T16:57:16;102062.91;;;1.57;87.25
9325;BME280;4701;51.566;6.776;2023-01-29T16:59:20;102072.69;;;1.49;87.36
9325;BME280;4701;51.566;6.776;2023-01-29T17:01:27;102070.00;;;1.49;87.37
9325;BME280;4701;51.566;6.776;2023-01-29T17:03:31;102058.59;;;1.47;87.38
9325;BME280;4701;51.566;6.776;2023-01-29T17:05:35;102056.88;;;1.55;87.62
9325;BME280;4701;51.566;6.776;2023-01-29T17:07:43;102051.66;;;1.61;87.69
9325;BME280;4701;51.566;6.776;2023-01-29T17:09:48;102060.34;;;1.63;87.49
9325;BME280;4701;51.566;6.776;2023-01-29T17:11:54;102060.91;;;1.59;87.24
9325;BME280;4701;51.566;6.776;2023-01-29T17:13:57;102044.41;;;1.62;87.39
9325;BME280;4701;51.566;6.776;2023-01-29T17:16:00;102052.34;;;1.55;87.13
9325;BME280;4701;51.566;6.776;2023-01-29T17:18:14;102053.19;;;1.56;87.68
9325;BME280;4701;51.566;6.776;2023-01-29T17:20:17;102045.63;;;1.59;87.51
9325;BME280;4701;51.566;6.776;2023-01-29T17:22:18;102044.56;;;1.68;87.17
9325;BME280;4701;51.566;6.776;2023-01-29T17:24:22;102039.19;;;1.68;87.71
9325;BME280;4701;51.566;6.776;2023-01-29T17:26:24;102039.66;;;1.72;87.20
9325;BME280;4701;51.566;6.776;2023-01-29T17:28:26;102025.53;;;1.78;87.07
9325;BME280;4701;51.566;6.776;2023-01-29T17:30:29;102026.03;;;1.73;86.82
9325;BME280;4701;51.566;6.776;2023-01-29T17:32:33;102033.75;;;1.76;87.14
9325;BME280;4701;51.566;6.776;2023-01-29T17:34:35;102049.88;;;1.76;87.00
9325;BME280;4701;51.566;6.776;2023-01-29T17:36:37;102036.63;;;1.75;87.34
9325;BME280;4701;51.566;6.776;2023-01-29T17:38:40;102037.47;;;1.75;86.84
9325;BME280;4701;51.566;6.776;2023-01-29T17:40:45;102023.19;;;1.75;87.11
9325;BME280;4701;51.566;6.776;2023-01-29T17:42:48;102032.38;;;1.80;87.25
9325;BME280;4701;51.566;6.776;2023-01-29T17:44:49;102021.50;;;1.74;87.04
9325;BME280;4701;51.566;6.776;2023-01-29T17:46:51;102016.97;;;1.74;87.50
9325;BME280;4701;51.566;6.776;2023-01-29T17:48:53;102011.41;;;1.76;87.04
9325;BME280;4701;51.566;6.776;2023-01-29T17:50:57;101997.03;;;1.69;87.38
9325;BME280;4701;51.566;6.776;2023-01-29T17:52:59;101994.63;;;1.74;87.42
9325;BME280;4701;51.566;6.776;2023-01-29T17:55:02;102017.63;;;1.76;86.51
9325;BME280;4701;51.566;6.776;2023-01-29T17:57:06;102017.13;;;1.73;86.65
9325;BME280;4701;51.566;6.776;2023-01-29T17:59:12;102028.91;;;1.72;86.96
9325;BME280;4701;51.566;6.776;2023-01-29T18:01:14;102011.41;;;1.76;86.95
9325;BME280;4701;51.566;6.776;2023-01-29T18:03:16;102010.09;;;1.72;86.79
9325;BME280;4701;51.566;6.776;2023-01-29T18:05:18;102012.13;;;1.70;86.97
9325;BME280;4701;51.566;6.776;2023-01-29T18:07:20;101997.59;;;1.79;86.70
9325;BME280;4701;51.566;6.776;2023-01-29T18:09:22;101999.09;;;1.81;86.49
9325;BME280;4701;51.566;6.776;2023-01-29T18:11:24;102014.78;;;1.78;86.47
9325;BME280;4701;51.566;6.776;2023-01-29T18:13:27;102014.09;;;1.76;86.57
9325;BME280;4701;51.566;6.776;2023-01-29T18:15:29;102026.88;;;1.74;86.46
9325;BME280;4701;51.566;6.776;2023-01-29T18:17:31;102015.84;;;1.69;86.61
9325;BME280;4701;51.566;6.776;2023-01-29T18:19:33;102011.59;;;1.74;86.79
9325;BME280;4701;51.566;6.776;2023-01-29T18:21:35;101999.50;;;1.70;87.08
9325;BME280;4701;51.566;6.776;2023-01-29T18:23:36;101994.50;;;1.67;87.05
9325;BME280;4701;51.566;6.776;2023-01-29T18:25:38;101986.44;;;1.67;86.68
9325;BME280;4701;51.566;6.776;2023-01-29T18:27:40;101996.69;;;1.64;87.56
9325;BME280;4701;51.566;6.776;2023-01-29T18:29:44;101993.97;;;1.72;86.97
9325;BME280;4701;51.566;6.776;2023-01-29T18:31:47;101997.47;;;1.72;86.93
9325;BME280;4701;51.566;6.776;2023-01-29T18:33:49;101992.47;;;1.69;87.01